Terminal Aerodrome Forecast
Issued by NWS

Home | Current Version | Previous Version | Graphics & Text | Print | Product List | Glossary On
Versions: 1 2 3 4 5 6 7 8 9 10 11 12 13 14 15 16 17 18 19 20 21 22 23 24 25 26 27 28
064
FTUS43 KLOT 200525
TAFORD
TAF
KORD 200525Z 2006/2112 19013G21KT P6SM BKN040 BKN250
     FM200800 19010KT P6SM VCSH OVC035
      TEMPO 2008/2011 4SM -SHRA
     FM201100 20006KT 5SM BR OVC020
     FM201500 24004KT 3SM BR VCSH OVC009
      TEMPO 2017/2019 -SHRA OVC012
     FM201900 02012KT P6SM OVC012
     FM210000 02010KT P6SM BKN035
     FM210400 02007KT P6SM BKN150=

USA.gov is the U.S. government's official web portal to all federal, state and local government web resources and services.